Time,TemperatureF,DewpointF,PressureIn,WindDirection,WindDirectionDegrees,WindSpeedMPH,WindSpeedGustMPH,Humidity,HourlyPrecipIn,Conditions,Clouds,dailyrainin,SolarRadiationWatts/m^2,SoftwareType,DateUTC
2013-04-11 00:01:00,30.0,12.0,-100.00,East,91,10.0,22.0,47,0.00,,,0.00,0.000000,,2013-04-11 05:01:00,
2013-04-11 00:23:00,30.0,12.0,-100.00,East,91,10.0,22.0,47,0.00,,,0.00,0.000000,,2013-04-11 05:23:00,
2013-04-11 00:32:00,30.0,12.0,-100.00,East,91,10.0,22.0,47,0.00,,,0.00,0.000000,,2013-04-11 05:32:00,
2013-04-11 00:42:00,30.0,12.0,-100.00,East,91,10.0,22.0,47,0.00,,,0.00,0.000000,,2013-04-11 05:42:00,
2013-04-11 00:52:00,30.0,12.0,-100.00,East,91,10.0,22.0,47,0.00,,,0.00,0.000000,,2013-04-11 05:52:00,
2013-04-11 01:01:00,29.0,15.0,-100.00,East,86,10.0,19.0,55,0.00,,,0.00,0.000000,,2013-04-11 06:01:00,
2013-04-11 01:32:00,29.0,15.0,-100.00,East,86,10.0,19.0,55,0.00,,,0.00,0.000000,,2013-04-11 06:32:00,
2013-04-11 01:42:00,29.0,15.0,-100.00,East,86,10.0,19.0,55,0.00,,,0.00,0.000000,,2013-04-11 06:42:00,
2013-04-11 01:52:00,29.0,15.0,-100.00,East,86,10.0,19.0,55,0.00,,,0.00,0.000000,,2013-04-11 06:52:00,
2013-04-11 02:01:00,29.0,19.0,-100.00,East,88,8.0,16.0,65,0.00,,,0.00,0.000000,,2013-04-11 07:01:00,
2013-04-11 02:32:00,29.0,19.0,-100.00,East,88,8.0,16.0,65,0.00,,,0.00,0.000000,,2013-04-11 07:32:00,
2013-04-11 02:43:00,29.0,19.0,-100.00,East,88,8.0,16.0,65,0.00,,,0.00,0.000000,,2013-04-11 07:43:00,
2013-04-11 02:52:00,29.0,19.0,-100.00,East,88,8.0,16.0,65,0.00,,,0.00,0.000000,,2013-04-11 07:52:00,
2013-04-11 03:01:00,29.0,21.0,-100.00,East,84,9.0,18.0,72,0.00,,,0.00,0.000000,,2013-04-11 08:01:00,
2013-04-11 03:22:00,29.0,21.0,-100.00,East,84,9.0,18.0,72,0.00,,,0.00,0.000000,,2013-04-11 08:22:00,
2013-04-11 03:33:00,29.0,21.0,-100.00,East,84,9.0,18.0,72,0.00,,,0.00,0.000000,,2013-04-11 08:33:00,
2013-04-11 03:43:00,29.0,21.0,-100.00,East,84,9.0,18.0,72,0.00,,,0.00,0.000000,,2013-04-11 08:43:00,
2013-04-11 03:52:00,29.0,21.0,-100.00,East,84,9.0,18.0,72,0.00,,,0.00,0.000000,,2013-04-11 08:52:00,
2013-04-11 05:01:00,28.0,20.0,-100.00,East,86,8.0,15.0,70,-99.99,,,0.00,0.000000,,2013-04-11 10:01:00,
2013-04-11 05:32:00,28.0,20.0,-100.00,East,86,8.0,15.0,70,-99.99,,,0.00,0.000000,,2013-04-11 10:32:00,
2013-04-11 05:42:00,28.0,20.0,-100.00,East,86,8.0,15.0,70,-99.99,,,0.00,0.000000,,2013-04-11 10:42:00,
2013-04-11 05:52:00,28.0,20.0,-100.00,East,86,8.0,15.0,70,-99.99,,,0.00,0.000000,,2013-04-11 10:52:00,
2013-04-11 06:01:00,28.0,20.0,-100.00,East,90,11.0,22.0,71,0.00,,,-99.99,0.000000,,2013-04-11 11:01:00,
2013-04-11 06:32:00,28.0,20.0,-100.00,East,90,11.0,22.0,71,0.00,,,-99.99,0.000000,,2013-04-11 11:32:00,
2013-04-11 06:43:00,28.0,20.0,-100.00,East,90,11.0,22.0,71,0.00,,,-99.99,0.000000,,2013-04-11 11:43:00,
2013-04-11 06:52:00,28.0,20.0,-100.00,East,90,11.0,22.0,71,0.00,,,-99.99,0.000000,,2013-04-11 11:52:00,
2013-04-11 07:01:00,27.0,20.0,-100.00,East,93,11.0,21.0,75,0.00,,,-99.99,6.000000,,2013-04-11 12:01:00,
2013-04-11 07:32:00,27.0,20.0,-100.00,East,93,11.0,21.0,75,0.00,,,-99.99,6.000000,,2013-04-11 12:32:00,
2013-04-11 07:43:00,27.0,20.0,-100.00,East,93,11.0,21.0,75,0.00,,,-99.99,6.000000,,2013-04-11 12:43:00,
2013-04-11 07:52:00,27.0,20.0,-100.00,East,93,11.0,21.0,75,0.00,,,-99.99,6.000000,,2013-04-11 12:52:00,
2013-04-11 08:01:00,28.0,21.0,-100.00,East,88,13.0,26.0,74,0.00,,,0.00,40.000000,,2013-04-11 13:01:00,
2013-04-11 08:32:00,28.0,21.0,-100.00,East,88,13.0,26.0,74,0.00,,,0.00,40.000000,,2013-04-11 13:32:00,
2013-04-11 08:43:00,28.0,21.0,-100.00,East,88,13.0,26.0,74,0.00,,,0.00,40.000000,,2013-04-11 13:43:00,
2013-04-11 08:54:00,28.0,21.0,-100.00,East,88,13.0,26.0,74,0.00,,,0.00,40.000000,,2013-04-11 13:54:00,
2013-04-11 09:01:00,28.0,20.0,-100.00,East,92,11.0,20.0,71,0.00,,,0.00,53.000000,,2013-04-11 14:01:00,
2013-04-11 09:33:00,28.0,20.0,-100.00,East,92,11.0,20.0,71,0.00,,,0.00,53.000000,,2013-04-11 14:33:00,
2013-04-11 09:43:00,28.0,20.0,-100.00,East,92,11.0,20.0,71,0.00,,,0.00,53.000000,,2013-04-11 14:43:00,
2013-04-11 09:53:00,28.0,20.0,-100.00,East,92,11.0,20.0,71,0.00,,,0.00,53.000000,,2013-04-11 14:53:00,
2013-04-11 12:01:00,31.0,20.0,-100.00,East,95,9.0,19.0,63,-99.99,,,0.00,231.000000,,2013-04-11 17:01:00,
2013-04-11 12:33:00,31.0,20.0,-100.00,East,95,9.0,19.0,63,-99.99,,,0.00,231.000000,,2013-04-11 17:33:00,
2013-04-11 12:43:00,31.0,20.0,-100.00,East,95,9.0,19.0,63,-99.99,,,0.00,231.000000,,2013-04-11 17:43:00,
2013-04-11 12:53:00,31.0,20.0,-100.00,East,95,9.0,19.0,63,-99.99,,,0.00,231.000000,,2013-04-11 17:53:00,
2013-04-11 13:01:00,32.0,20.0,-100.00,ENE,77,8.0,19.0,62,0.00,,,0.00,156.000000,,2013-04-11 18:01:00,
2013-04-11 13:33:00,32.0,20.0,-100.00,ENE,77,8.0,19.0,62,0.00,,,0.00,156.000000,,2013-04-11 18:33:00,
2013-04-11 13:43:00,32.0,20.0,-100.00,ENE,77,8.0,19.0,62,0.00,,,0.00,156.000000,,2013-04-11 18:43:00,
2013-04-11 13:53:00,32.0,20.0,-100.00,ENE,77,8.0,19.0,62,0.00,,,0.00,156.000000,,2013-04-11 18:53:00,
2013-04-11 14:01:00,32.0,21.0,-100.00,East,84,10.0,22.0,63,0.00,,,0.00,239.000000,,2013-04-11 19:01:00,
2013-04-11 14:23:00,32.0,21.0,-100.00,East,84,10.0,22.0,63,0.00,,,0.00,239.000000,,2013-04-11 19:23:00,
2013-04-11 14:33:00,32.0,21.0,-100.00,East,84,10.0,22.0,63,0.00,,,0.00,239.000000,,2013-04-11 19:33:00,
2013-04-11 14:43:00,32.0,21.0,-100.00,East,84,10.0,22.0,63,0.00,,,0.00,239.000000,,2013-04-11 19:43:00,
2013-04-11 14:53:00,32.0,21.0,-100.00,East,84,10.0,22.0,63,0.00,,,0.00,239.000000,,2013-04-11 19:53:00,
2013-04-11 15:01:00,34.0,19.0,-100.00,East,87,10.0,21.0,53,0.00,,,0.00,342.000000,,2013-04-11 20:01:00,
2013-04-11 15:33:00,34.0,19.0,-100.00,East,87,10.0,21.0,53,0.00,,,0.00,342.000000,,2013-04-11 20:33:00,
2013-04-11 15:43:00,34.0,19.0,-100.00,East,87,10.0,21.0,53,0.00,,,0.00,342.000000,,2013-04-11 20:43:00,
2013-04-11 15:52:00,34.0,19.0,-100.00,East,87,10.0,21.0,53,0.00,,,0.00,342.000000,,2013-04-11 20:52:00,
2013-04-11 16:01:00,33.0,17.0,-100.00,East,87,12.0,22.0,52,0.00,,,0.00,341.000000,,2013-04-11 21:01:00,
2013-04-11 16:23:00,33.0,17.0,-100.00,East,87,12.0,22.0,52,0.00,,,0.00,341.000000,,2013-04-11 21:23:00,
2013-04-11 16:33:00,33.0,17.0,-100.00,East,87,12.0,22.0,52,0.00,,,0.00,341.000000,,2013-04-11 21:33:00,
2013-04-11 16:43:00,33.0,17.0,-100.00,East,87,12.0,22.0,52,0.00,,,0.00,341.000000,,2013-04-11 21:43:00,
2013-04-11 16:54:00,33.0,17.0,-100.00,East,87,12.0,22.0,52,0.00,,,0.00,341.000000,,2013-04-11 21:54:00,
2013-04-11 17:01:00,30.0,20.0,-100.00,East,80,11.0,23.0,66,0.00,,,0.00,173.000000,,2013-04-11 22:01:00,
2013-04-11 17:33:00,30.0,20.0,-100.00,East,80,11.0,23.0,66,0.00,,,0.00,173.000000,,2013-04-11 22:33:00,
2013-04-11 17:44:00,30.0,20.0,-100.00,East,80,11.0,23.0,66,0.00,,,0.00,173.000000,,2013-04-11 22:44:00,
2013-04-11 17:53:00,30.0,20.0,-100.00,East,80,11.0,23.0,66,0.00,,,0.00,173.000000,,2013-04-11 22:53:00,
2013-04-11 18:01:00,29.0,18.0,-100.00,East,81,8.0,16.0,62,0.00,,,0.00,64.000000,,2013-04-11 23:01:00,
2013-04-11 18:33:00,29.0,18.0,-100.00,East,81,8.0,16.0,62,0.00,,,0.00,64.000000,,2013-04-11 23:33:00,
2013-04-11 18:43:00,29.0,18.0,-100.00,East,81,8.0,16.0,62,0.00,,,0.00,64.000000,,2013-04-11 23:43:00,
2013-04-11 18:53:00,29.0,18.0,-100.00,East,81,8.0,16.0,62,0.00,,,0.00,64.000000,,2013-04-11 23:53:00,
2013-04-11 19:01:00,29.0,16.0,-100.00,East,86,10.0,20.0,57,0.00,,,0.00,15.000000,,2013-04-12 00:01:00,
2013-04-11 19:33:00,29.0,16.0,-100.00,East,86,10.0,20.0,57,0.00,,,0.00,15.000000,,2013-04-12 00:33:00,
2013-04-11 19:43:00,29.0,16.0,-100.00,East,86,10.0,20.0,57,0.00,,,0.00,15.000000,,2013-04-12 00:43:00,
2013-04-11 19:53:00,29.0,16.0,-100.00,East,86,10.0,20.0,57,0.00,,,0.00,15.000000,,2013-04-12 00:53:00,
2013-04-11 20:01:00,27.0,19.0,-100.00,East,88,11.0,23.0,70,0.00,,,0.00,2.000000,,2013-04-12 01:01:00,
2013-04-11 20:23:00,27.0,19.0,-100.00,East,88,11.0,23.0,70,0.00,,,0.00,2.000000,,2013-04-12 01:23:00,
2013-04-11 20:33:00,27.0,19.0,-100.00,East,88,11.0,23.0,70,0.00,,,0.00,2.000000,,2013-04-12 01:33:00,
2013-04-11 20:42:00,27.0,19.0,-100.00,East,88,11.0,23.0,70,0.00,,,0.00,2.000000,,2013-04-12 01:42:00,
2013-04-11 20:52:00,27.0,19.0,-100.00,East,88,11.0,23.0,70,0.00,,,0.00,2.000000,,2013-04-12 01:52:00,
2013-04-11 21:01:00,26.0,21.0,-100.00,East,93,12.0,28.0,82,0.00,,,0.00,0.000000,,2013-04-12 02:01:00,
2013-04-11 21:22:00,26.0,21.0,-100.00,East,93,12.0,28.0,82,0.00,,,0.00,0.000000,,2013-04-12 02:22:00,
2013-04-11 21:32:00,26.0,21.0,-100.00,East,93,12.0,28.0,82,0.00,,,0.00,0.000000,,2013-04-12 02:32:00,
2013-04-11 21:42:00,26.0,21.0,-100.00,East,93,12.0,28.0,82,0.00,,,0.00,0.000000,,2013-04-12 02:42:00,
2013-04-11 21:52:00,26.0,21.0,-100.00,East,93,12.0,28.0,82,0.00,,,0.00,0.000000,,2013-04-12 02:52:00,
2013-04-11 22:01:00,27.0,19.0,-100.00,East,101,11.0,21.0,72,0.00,,,0.00,0.000000,,2013-04-12 03:01:00,
2013-04-11 22:33:00,27.0,19.0,-100.00,East,101,11.0,21.0,72,0.00,,,0.00,0.000000,,2013-04-12 03:33:00,
2013-04-11 22:43:00,27.0,19.0,-100.00,East,101,11.0,21.0,72,0.00,,,0.00,0.000000,,2013-04-12 03:43:00,
2013-04-11 22:53:00,27.0,19.0,-100.00,East,101,11.0,21.0,72,0.00,,,0.00,0.000000,,2013-04-12 03:53:00,
2013-04-11 23:01:00,25.0,23.0,-100.00,East,81,8.0,20.0,91,0.00,,,0.00,0.000000,,2013-04-12 04:01:00,
2013-04-11 23:23:00,25.0,23.0,-100.00,East,81,8.0,20.0,91,0.00,,,0.00,0.000000,,2013-04-12 04:23:00,
2013-04-11 23:33:00,25.0,23.0,-100.00,East,81,8.0,20.0,91,0.00,,,0.00,0.000000,,2013-04-12 04:33:00,
2013-04-11 23:43:00,25.0,23.0,-100.00,East,81,8.0,20.0,91,0.00,,,0.00,0.000000,,2013-04-12 04:43:00,
2013-04-11 23:53:00,25.0,23.0,-100.00,East,81,8.0,20.0,91,0.00,,,0.00,0.000000,,2013-04-12 04:53:00,